createdAt,value
2022-09-25T00:02:17.736Z,70.10
2022-09-25T00:04:44.309Z,70.10
2022-09-25T00:07:10.917Z,70.10
2022-09-25T00:09:37.476Z,70.00
2022-09-25T00:12:04.073Z,70.00
2022-09-25T00:14:31.027Z,70.20
2022-09-25T00:16:57.658Z,70.10
2022-09-25T00:19:42.638Z,70.00
2022-09-25T00:22:09.222Z,68.50
2022-09-25T00:24:35.855Z,70.10
2022-09-25T00:27:02.456Z,70.10
2022-09-25T00:29:30.915Z,70.20
2022-09-25T00:31:57.563Z,70.10
2022-09-25T00:34:24.181Z,70.10
2022-09-25T00:36:50.758Z,70.00
2022-09-25T00:39:17.342Z,70.20
2022-09-25T00:41:43.904Z,70.10
2022-09-25T00:44:29.272Z,70.10
2022-09-25T00:46:56.021Z,68.10
2022-09-25T00:49:24.429Z,70.00
2022-09-25T00:51:57.514Z,70.00
2022-09-25T00:54:31.446Z,68.20
2022-09-25T00:56:59.945Z,70.10
2022-09-25T00:59:29.603Z,70.70
2022-09-25T01:01:56.680Z,70.10
2022-09-25T01:04:23.491Z,70.10
2022-09-25T01:06:50.548Z,69.80
2022-09-25T01:09:17.201Z,70.20
2022-09-25T01:11:45.158Z,70.10
2022-09-25T01:14:12.194Z,70.00
2022-09-25T01:16:59.382Z,70.10
2022-09-25T01:19:35.488Z,70.00
2022-09-25T01:22:08.219Z,68.10
2022-09-25T01:24:44.384Z,68.40
2022-09-25T01:27:19.691Z,68.10
2022-09-25T01:29:55.947Z,70.10
2022-09-25T01:32:22.511Z,68.00
2022-09-25T01:34:52.894Z,70.10
2022-09-25T01:37:38.070Z,68.20
2022-09-25T01:40:04.613Z,68.20
2022-09-25T01:42:36.559Z,70.00
2022-09-25T01:45:05.729Z,70.20
2022-09-25T01:47:36.091Z,70.10
2022-09-25T01:50:05.362Z,70.10
2022-09-25T01:52:35.216Z,70.10
2022-09-25T01:55:15.119Z,70.00
2022-09-25T01:57:44.459Z,68.60
2022-09-25T02:00:13.426Z,70.20
2022-09-25T02:02:43.373Z,69.40
2022-09-25T02:05:21.184Z,70.10
2022-09-25T02:07:50.853Z,68.20
2022-09-25T02:10:23.161Z,70.10
2022-09-25T02:12:52.699Z,68.20
2022-09-25T02:15:28.589Z,70.10
2022-09-25T02:18:19.204Z,68.10
2022-09-25T02:20:58.137Z,70.10
2022-09-25T02:23:45.040Z,68.20
2022-09-25T02:26:16.416Z,70.00
2022-09-25T02:28:43.240Z,70.20
2022-09-25T02:31:11.319Z,70.00
2022-09-25T02:33:38.303Z,70.20
2022-09-25T02:36:06.290Z,70.00
2022-09-25T02:38:33.635Z,70.10
2022-09-25T02:41:03.315Z,70.30
2022-09-25T02:43:42.131Z,68.20
2022-09-25T02:46:29.014Z,68.20
2022-09-25T02:49:11.036Z,70.10
2022-09-25T02:52:00.390Z,68.10
2022-09-25T02:54:36.848Z,68.10
2022-09-25T02:57:08.999Z,68.10
2022-09-25T02:59:41.686Z,70.10
2022-09-25T03:02:08.911Z,68.10
2022-09-25T03:04:39.689Z,70.10
2022-09-25T03:07:06.499Z,70.20
2022-09-25T03:09:35.423Z,69.90
2022-09-25T03:12:03.453Z,70.10
2022-09-25T03:14:30.048Z,70.20
2022-09-25T03:16:58.040Z,70.10
2022-09-25T03:19:28.530Z,70.00
2022-09-25T03:21:55.229Z,68.40
2022-09-25T03:24:22.228Z,70.10
2022-09-25T03:26:49.213Z,70.20
2022-09-25T03:29:17.303Z,70.10
2022-09-25T03:31:45.538Z,70.20
2022-09-25T03:34:13.358Z,70.10
2022-09-25T03:36:40.646Z,70.10
2022-09-25T03:39:07.286Z,70.10
2022-09-25T03:41:35.111Z,70.20
2022-09-25T03:44:02.040Z,70.30
2022-09-25T03:46:29.850Z,69.90
2022-09-25T03:48:57.056Z,70.50
2022-09-25T03:51:24.274Z,70.20
2022-09-25T03:53:51.144Z,70.30
2022-09-25T03:56:20.256Z,70.20
2022-09-25T03:58:47.322Z,70.20
2022-09-25T04:01:14.597Z,70.20
2022-09-25T04:03:41.916Z,70.20
2022-09-25T04:06:08.558Z,70.10
2022-09-25T04:08:36.347Z,70.00
2022-09-25T04:11:03.368Z,70.20
2022-09-25T04:13:31.293Z,70.10
2022-09-25T04:15:58.939Z,70.20
2022-09-25T04:18:25.934Z,70.10
2022-09-25T04:20:52.558Z,70.00
2022-09-25T04:23:19.137Z,69.90
2022-09-25T04:25:45.814Z,70.20
2022-09-25T04:28:12.612Z,70.00
2022-09-25T04:30:39.190Z,70.10
2022-09-25T04:33:24.446Z,70.10
2022-09-25T04:35:51.074Z,68.70
2022-09-25T04:38:17.886Z,70.10
2022-09-25T04:40:45.950Z,70.00
2022-09-25T04:43:12.650Z,70.10
2022-09-25T04:45:39.363Z,70.20
2022-09-25T04:48:06.547Z,70.10
2022-09-25T04:50:33.486Z,70.20
2022-09-25T04:53:00.454Z,70.30
2022-09-25T04:55:27.462Z,70.20
2022-09-25T04:57:58.801Z,70.20
2022-09-25T05:00:27.711Z,70.40
2022-09-25T05:02:54.387Z,70.40
2022-09-25T05:05:21.260Z,70.30
2022-09-25T05:07:51.516Z,70.20
2022-09-25T05:10:18.121Z,68.40
2022-09-25T05:12:46.023Z,70.30
2022-09-25T05:15:12.638Z,70.30
2022-09-25T05:17:39.259Z,70.30
2022-09-25T05:20:06.092Z,70.30
2022-09-25T05:22:32.705Z,69.60
2022-09-25T05:24:59.366Z,70.20
2022-09-25T05:27:25.983Z,70.30
2022-09-25T05:29:52.611Z,70.10
2022-09-25T05:32:19.256Z,70.70
2022-09-25T05:34:46.959Z,70.10
2022-09-25T05:37:13.537Z,70.10
2022-09-25T05:39:40.129Z,70.00
2022-09-25T05:42:06.729Z,70.30
2022-09-25T05:44:33.351Z,70.20
2022-09-25T05:46:59.971Z,70.40
2022-09-25T05:49:26.580Z,70.20
2022-09-25T05:51:53.208Z,70.10
2022-09-25T05:54:19.781Z,70.00
2022-09-25T05:56:46.344Z,70.20
2022-09-25T05:59:13.008Z,70.20
2022-09-25T06:01:41.183Z,70.10
2022-09-25T06:04:07.869Z,70.30
2022-09-25T06:06:34.431Z,70.10
2022-09-25T06:09:01.004Z,70.30
2022-09-25T06:11:28.187Z,70.30
2022-09-25T06:13:55.518Z,70.20
2022-09-25T06:16:23.073Z,70.10
2022-09-25T06:18:51.116Z,70.20
2022-09-25T06:21:17.687Z,70.00
2022-09-25T06:23:48.642Z,70.30
2022-09-25T06:26:15.215Z,68.60
2022-09-25T06:28:41.776Z,70.20
2022-09-25T06:31:08.488Z,69.80
2022-09-25T06:33:35.166Z,70.20
2022-09-25T06:36:01.920Z,70.20
2022-09-25T06:38:28.567Z,69.90
2022-09-25T06:40:59.541Z,70.20
2022-09-25T06:43:27.182Z,70.30
2022-09-25T06:45:53.821Z,70.20
2022-09-25T06:48:22.066Z,70.30
2022-09-25T06:50:50.784Z,70.30
2022-09-25T06:53:17.961Z,70.60
2022-09-25T06:55:45.246Z,70.40
2022-09-25T06:58:13.321Z,70.20
2022-09-25T07:00:40.201Z,70.30
2022-09-25T07:03:25.464Z,70.20
2022-09-25T07:05:52.181Z,68.60
2022-09-25T07:08:21.092Z,70.10
2022-09-25T07:10:48.898Z,70.10
2022-09-25T07:13:16.701Z,70.10
2022-09-25T07:15:44.002Z,70.30
2022-09-25T07:18:10.635Z,70.20
2022-09-25T07:20:37.723Z,70.00
2022-09-25T07:23:04.395Z,70.20
2022-09-25T07:25:33.684Z,70.10
2022-09-25T07:28:00.367Z,68.70
2022-09-25T07:30:27.627Z,70.30
2022-09-25T07:32:57.788Z,70.30
2022-09-25T07:35:27.225Z,70.20
2022-09-25T07:37:57.529Z,70.20
2022-09-25T07:40:26.345Z,68.20
2022-09-25T07:42:53.320Z,70.30
2022-09-25T07:45:19.949Z,70.20
2022-09-25T07:47:46.544Z,70.30
2022-09-25T07:50:15.521Z,70.20
2022-09-25T07:52:42.464Z,70.30
2022-09-25T07:55:09.349Z,70.20
2022-09-25T07:57:35.930Z,69.40
2022-09-25T08:00:02.681Z,70.10
2022-09-25T08:02:29.300Z,70.00
2022-09-25T08:04:55.942Z,70.10
2022-09-25T08:07:22.566Z,70.20
2022-09-25T08:09:49.129Z,70.10
2022-09-25T08:12:15.929Z,70.20
2022-09-25T08:14:42.514Z,69.90
2022-09-25T08:17:09.121Z,70.10
2022-09-25T08:19:35.832Z,70.00
2022-09-25T08:22:02.733Z,69.80
2022-09-25T08:24:29.473Z,70.10
2022-09-25T08:26:56.080Z,70.10
2022-09-25T08:29:23.151Z,70.10
2022-09-25T08:31:49.844Z,70.20
2022-09-25T08:34:39.493Z,69.90
2022-09-25T08:37:04.479Z,70.10
2022-09-25T08:39:31.086Z,70.10
2022-09-25T08:41:58.506Z,70.00
2022-09-25T08:44:28.112Z,70.10
2022-09-25T08:47:35.164Z,70.10
2022-09-25T08:50:10.618Z,68.20
2022-09-25T08:52:41.183Z,68.10
2022-09-25T08:55:47.696Z,70.20
2022-09-25T08:58:17.866Z,70.10
2022-09-25T09:00:45.163Z,70.10
2022-09-25T09:03:12.547Z,70.10
2022-09-25T09:05:41.188Z,70.00
2022-09-25T09:08:09.966Z,70.20
2022-09-25T09:10:58.178Z,70.40
2022-09-25T09:13:36.965Z,68.60
2022-09-25T09:16:18.251Z,68.00
2022-09-25T09:18:45.010Z,68.00
2022-09-25T09:21:19.051Z,69.90
2022-09-25T09:23:54.012Z,68.00
2022-09-25T09:26:23.635Z,68.00
2022-09-25T09:29:13.177Z,68.00
2022-09-25T09:31:56.719Z,67.90
2022-09-25T09:34:36.197Z,68.10
2022-09-25T09:37:18.456Z,69.90
2022-09-25T09:39:57.206Z,68.00
2022-09-25T09:42:47.090Z,67.90
2022-09-25T09:45:21.194Z,67.90
2022-09-25T09:47:47.762Z,68.10
2022-09-25T09:50:42.462Z,69.80
2022-09-25T09:53:22.627Z,68.10
2022-09-25T09:55:50.673Z,68.00
2022-09-25T09:58:22.665Z,70.00
2022-09-25T10:00:50.094Z,68.10
2022-09-25T10:03:23.725Z,70.10
2022-09-25T10:05:53.256Z,68.20
2022-09-25T10:08:20.030Z,70.00
2022-09-25T10:10:50.515Z,69.80
2022-09-25T10:13:20.234Z,69.90
2022-09-25T10:16:00.358Z,67.90
2022-09-25T10:18:50.408Z,68.00
2022-09-25T10:21:18.587Z,68.10
2022-09-25T10:23:49.988Z,69.90
2022-09-25T10:26:27.662Z,68.20
2022-09-25T10:28:57.453Z,68.10
2022-09-25T10:31:25.520Z,70.20
2022-09-25T10:34:03.089Z,70.00
2022-09-25T10:36:36.057Z,68.20
2022-09-25T10:39:24.558Z,68.20
2022-09-25T10:41:50.804Z,70.10
2022-09-25T10:44:29.142Z,70.20
2022-09-25T10:47:14.493Z,68.10
2022-09-25T10:50:06.286Z,69.60
2022-09-25T10:52:52.888Z,68.00
2022-09-25T10:55:34.735Z,68.00
2022-09-25T10:58:03.121Z,68.00
2022-09-25T11:00:29.931Z,69.70
2022-09-25T11:02:58.338Z,69.60
2022-09-25T11:05:28.148Z,70.20
2022-09-25T11:07:57.067Z,70.00
2022-09-25T11:10:28.017Z,70.00
2022-09-25T11:12:55.211Z,68.10
2022-09-25T11:15:23.639Z,69.90
2022-09-25T11:17:51.824Z,70.10
2022-09-25T11:20:21.665Z,70.00
2022-09-25T11:22:48.264Z,68.20
2022-09-25T11:25:21.176Z,70.00
2022-09-25T11:27:50.471Z,68.10
2022-09-25T11:30:18.712Z,69.90
2022-09-25T11:32:52.797Z,69.80
2022-09-25T11:35:38.894Z,68.10
2022-09-25T11:38:45.619Z,68.30
2022-09-25T11:41:26.005Z,68.00
2022-09-25T11:43:58.373Z,70.00
2022-09-25T11:46:25.577Z,69.80
2022-09-25T11:48:56.463Z,69.90
2022-09-25T11:51:24.279Z,69.90
2022-09-25T11:54:18.243Z,70.10
2022-09-25T11:56:58.831Z,67.90
2022-09-25T11:59:44.148Z,68.00
2022-09-25T12:02:10.786Z,68.00
2022-09-25T12:04:45.903Z,70.00
2022-09-25T12:07:28.025Z,70.10
2022-09-25T12:09:57.608Z,68.00
2022-09-25T12:12:32.308Z,68.10
2022-09-25T12:15:11.135Z,68.10
2022-09-25T12:17:56.436Z,68.10
2022-09-25T12:20:23.172Z,68.20
2022-09-25T12:22:56.130Z,69.70
2022-09-25T12:25:26.189Z,70.00
2022-09-25T12:28:08.078Z,68.10
2022-09-25T12:30:39.388Z,68.10
2022-09-25T12:33:24.505Z,70.00
2022-09-25T12:35:58.751Z,68.00
2022-09-25T12:38:31.889Z,67.70
2022-09-25T12:41:06.486Z,67.60
2022-09-25T12:43:44.293Z,67.50
2022-09-25T12:46:22.936Z,67.50
2022-09-25T12:48:52.872Z,67.70
2022-09-25T12:51:19.560Z,69.60
2022-09-25T12:53:57.904Z,69.40
2022-09-25T12:56:41.926Z,69.60
2022-09-25T12:59:15.697Z,67.70
2022-09-25T13:01:53.648Z,67.50
2022-09-25T13:04:26.284Z,67.50
2022-09-25T13:07:03.960Z,69.40
2022-09-25T13:09:34.772Z,67.40
2022-09-25T13:12:04.205Z,69.50
2022-09-25T13:14:39.320Z,67.60
2022-09-25T13:17:06.859Z,67.60
2022-09-25T13:19:34.634Z,69.90
2022-09-25T13:22:06.739Z,69.90
2022-09-25T13:24:46.573Z,68.00
2022-09-25T13:27:16.513Z,68.20
2022-09-25T13:29:43.314Z,70.20
2022-09-25T13:32:17.548Z,69.90
2022-09-25T13:34:44.806Z,68.10
2022-09-25T13:37:13.215Z,70.00
2022-09-25T13:39:58.315Z,70.70
2022-09-25T13:42:27.770Z,68.40
2022-09-25T13:45:07.839Z,68.00
2022-09-25T13:47:38.369Z,68.00
2022-09-25T13:50:11.052Z,67.90
2022-09-25T13:52:40.739Z,67.60
2022-09-25T13:55:13.607Z,66.50
2022-09-25T13:57:58.596Z,64.60
2022-09-25T14:00:26.281Z,64.00
2022-09-25T14:03:00.946Z,65.00
2022-09-25T14:05:32.265Z,63.40
2022-09-25T14:08:01.496Z,63.20
2022-09-25T14:10:28.374Z,62.20
2022-09-25T14:12:55.231Z,61.00
2022-09-25T14:15:23.967Z,60.00
2022-09-25T14:17:52.858Z,60.20
2022-09-25T14:20:40.129Z,60.10
2022-09-25T14:23:11.883Z,60.20
2022-09-25T14:25:42.596Z,61.00
2022-09-25T14:28:18.568Z,61.70
2022-09-25T14:31:17.687Z,60.30
2022-09-25T14:33:50.684Z,61.10
2022-09-25T14:36:23.910Z,61.70
2022-09-25T14:39:06.587Z,64.40
2022-09-25T14:41:52.924Z,62.90
2022-09-25T14:44:33.798Z,63.70
2022-09-25T14:47:00.504Z,64.10
2022-09-25T14:49:28.728Z,66.20
2022-09-25T14:51:57.767Z,66.20
2022-09-25T14:54:25.891Z,66.30
2022-09-25T14:56:56.739Z,66.10
2022-09-25T14:59:37.852Z,63.70
2022-09-25T15:02:04.625Z,65.30
2022-09-25T15:04:32.620Z,65.20
2022-09-25T15:07:08.304Z,65.70
2022-09-25T15:09:37.226Z,63.70
2022-09-25T15:12:20.931Z,66.40
2022-09-25T15:15:17.188Z,64.30
2022-09-25T15:17:51.788Z,64.50
2022-09-25T15:20:20.263Z,64.20
2022-09-25T15:22:52.519Z,66.30
2022-09-25T15:25:22.832Z,66.10
2022-09-25T15:27:51.142Z,66.00
2022-09-25T15:30:18.058Z,66.00
2022-09-25T15:32:47.536Z,66.50
2022-09-25T15:35:19.519Z,66.90
2022-09-25T15:37:46.784Z,65.00
2022-09-25T15:40:19.127Z,67.30
2022-09-25T15:42:47.000Z,65.10
2022-09-25T15:45:32.286Z,67.50
2022-09-25T15:48:00.016Z,65.20
2022-09-25T15:50:27.935Z,67.70
2022-09-25T15:52:59.442Z,67.50
2022-09-25T15:55:28.198Z,67.50
2022-09-25T15:57:55.464Z,67.60
2022-09-25T16:00:44.514Z,67.60
2022-09-25T16:03:35.606Z,65.30
2022-09-25T16:06:03.352Z,65.40
2022-09-25T16:08:32.015Z,67.70
2022-09-25T16:11:17.272Z,67.90
2022-09-25T16:13:46.324Z,65.60
2022-09-25T16:16:30.174Z,68.50
2022-09-25T16:19:17.033Z,65.70
2022-09-25T16:21:43.713Z,68.10
2022-09-25T16:24:17.897Z,68.00
2022-09-25T16:26:45.959Z,68.20
2022-09-25T16:29:12.549Z,68.40
2022-09-25T16:31:43.301Z,68.40
2022-09-25T16:34:36.038Z,66.20
2022-09-25T16:37:03.505Z,66.30
2022-09-25T16:39:32.100Z,68.90
2022-09-25T16:41:59.962Z,68.80
2022-09-25T16:44:32.739Z,68.80
2022-09-25T16:46:59.342Z,66.60
2022-09-25T16:49:26.008Z,68.90
2022-09-25T16:51:53.848Z,69.00
2022-09-25T16:54:21.529Z,69.30
2022-09-25T16:56:48.708Z,69.30
2022-09-25T16:59:17.341Z,69.30
2022-09-25T17:01:44.595Z,69.30
2022-09-25T17:04:12.193Z,69.50
2022-09-25T17:06:40.837Z,69.50
2022-09-25T17:09:12.218Z,69.40
2022-09-25T17:11:40.106Z,67.20
2022-09-25T17:14:09.781Z,69.60
2022-09-25T17:16:36.456Z,69.40
2022-09-25T17:19:05.344Z,69.40
2022-09-25T17:21:34.020Z,69.70
2022-09-25T17:24:00.734Z,69.70
2022-09-25T17:26:27.545Z,69.40
2022-09-25T17:28:54.140Z,69.50
2022-09-25T17:31:21.450Z,69.90
2022-09-25T17:33:52.123Z,69.90
2022-09-25T17:36:18.890Z,70.20
2022-09-25T17:38:45.527Z,69.80
2022-09-25T17:41:18.306Z,70.10
2022-09-25T17:46:14.802Z,66.50
2022-09-25T17:48:41.502Z,65.50
2022-09-25T17:51:14.569Z,65.00
2022-09-25T17:53:41.144Z,62.60
2022-09-25T17:56:07.786Z,64.80
2022-09-25T17:58:34.474Z,64.50
2022-09-25T18:01:01.557Z,64.50
2022-09-25T18:03:31.133Z,64.80
2022-09-25T18:05:58.160Z,63.80
2022-09-25T18:08:24.780Z,64.90
2022-09-25T18:10:53.347Z,64.80
2022-09-25T18:13:20.235Z,64.60
2022-09-25T18:15:48.572Z,64.40
2022-09-25T18:18:15.328Z,64.90
2022-09-25T18:21:01.890Z,64.40
2022-09-25T18:23:33.527Z,63.10
2022-09-25T18:26:04.109Z,64.70
2022-09-25T18:28:31.174Z,62.50
2022-09-25T18:30:58.096Z,64.90
2022-09-25T18:33:25.211Z,65.10
2022-09-25T18:35:52.196Z,65.20
2022-09-25T18:38:18.802Z,65.80
2022-09-25T18:40:45.527Z,66.40
2022-09-25T18:43:12.954Z,67.20
2022-09-25T18:45:40.896Z,66.80
2022-09-25T18:48:07.513Z,66.00
2022-09-25T18:50:35.085Z,67.20
2022-09-25T18:53:01.719Z,67.00
2022-09-25T18:55:28.378Z,68.80
2022-09-25T18:57:55.155Z,66.60
2022-09-25T19:00:22.138Z,68.10
2022-09-25T19:02:48.831Z,65.60
2022-09-25T19:05:17.101Z,65.40
2022-09-25T19:07:43.771Z,65.60
2022-09-25T19:10:10.908Z,65.30
2022-09-25T19:12:37.566Z,65.50
2022-09-25T19:15:04.710Z,65.20
2022-09-25T19:17:31.463Z,65.20
2022-09-25T19:19:58.094Z,64.70
2022-09-25T19:22:25.475Z,64.80
2022-09-25T19:24:52.789Z,65.00
2022-09-25T19:27:19.497Z,64.80
2022-09-25T19:29:46.550Z,64.80
2022-09-25T19:32:14.366Z,65.10
2022-09-25T19:34:41.651Z,65.30
2022-09-25T19:37:08.698Z,65.30
2022-09-25T19:39:55.385Z,65.80
2022-09-25T19:42:22.773Z,65.80
2022-09-25T19:44:49.871Z,65.80
2022-09-25T19:47:16.766Z,65.40
2022-09-25T19:49:43.406Z,64.90
2022-09-25T19:52:09.996Z,65.10
2022-09-25T19:54:36.643Z,65.40
2022-09-25T19:57:03.332Z,65.30
2022-09-25T19:59:30.012Z,65.30
2022-09-25T20:01:58.186Z,65.50
2022-09-25T20:04:24.907Z,66.00
2022-09-25T20:06:51.618Z,65.60
2022-09-25T20:09:18.557Z,65.80
2022-09-25T20:11:45.316Z,66.20
2022-09-25T20:14:13.018Z,66.20
2022-09-25T20:16:39.669Z,66.80
2022-09-25T20:19:06.723Z,66.40
2022-09-25T20:21:35.167Z,66.70
2022-09-25T20:24:03.109Z,67.30
2022-09-25T20:26:30.287Z,67.30
2022-09-25T20:28:58.279Z,67.40
2022-09-25T20:31:25.808Z,67.40
2022-09-25T20:33:52.478Z,67.50
2022-09-25T20:36:19.239Z,67.00
2022-09-25T20:38:48.764Z,66.90
2022-09-25T20:41:15.402Z,67.40
2022-09-25T20:43:44.050Z,66.50
2022-09-25T20:46:12.454Z,66.60
2022-09-25T20:48:45.502Z,66.50
2022-09-25T20:51:13.016Z,63.40
2022-09-25T20:53:39.960Z,65.80
2022-09-25T20:56:13.882Z,65.70
2022-09-25T20:58:41.282Z,63.20
2022-09-25T21:01:09.303Z,65.90
2022-09-25T21:03:37.169Z,66.30
2022-09-25T21:06:05.780Z,66.90
2022-09-25T21:08:32.812Z,67.70
2022-09-25T21:11:01.801Z,67.00
2022-09-25T21:13:29.288Z,67.00
2022-09-25T21:16:02.083Z,67.40
2022-09-25T21:18:28.743Z,67.90
2022-09-25T21:20:59.049Z,66.00
2022-09-25T21:23:25.866Z,66.50
2022-09-25T21:25:52.600Z,66.00
2022-09-25T21:28:19.665Z,65.70
2022-09-25T21:30:46.358Z,65.80
2022-09-25T21:33:13.837Z,66.10
2022-09-25T21:35:40.438Z,65.90
2022-09-25T21:38:07.047Z,66.00
2022-09-25T21:40:33.702Z,65.70
2022-09-25T21:43:00.306Z,65.50
2022-09-25T21:45:26.918Z,65.50
2022-09-25T21:47:54.513Z,65.30
2022-09-25T21:50:21.089Z,65.20
2022-09-25T21:52:47.712Z,65.30
2022-09-25T21:55:14.358Z,64.90
2022-09-25T21:57:40.990Z,64.90
2022-09-25T22:00:07.895Z,64.90
2022-09-25T22:02:34.639Z,64.40
2022-09-25T22:05:01.315Z,65.00
2022-09-25T22:07:27.987Z,65.20
2022-09-25T22:09:54.621Z,65.00
2022-09-25T22:12:21.250Z,65.00
2022-09-25T22:14:47.828Z,65.00
2022-09-25T22:17:14.529Z,65.10
2022-09-25T22:19:41.167Z,64.90
2022-09-25T22:22:07.799Z,65.10
2022-09-25T22:24:34.500Z,65.30
2022-09-25T22:27:01.125Z,65.10
2022-09-25T22:29:27.783Z,65.30
2022-09-25T22:31:54.562Z,65.20
2022-09-25T22:34:30.062Z,65.20
2022-09-25T22:36:59.948Z,65.30
2022-09-25T22:39:27.468Z,65.40
2022-09-25T22:41:54.779Z,65.50
2022-09-25T22:44:21.733Z,65.80
2022-09-25T22:46:48.397Z,65.40
2022-09-25T22:49:15.210Z,65.40
2022-09-25T22:51:41.890Z,65.20
2022-09-25T22:54:09.448Z,65.30
2022-09-25T22:56:36.161Z,65.30
2022-09-25T22:59:04.520Z,65.00
2022-09-25T23:01:33.581Z,65.30
2022-09-25T23:04:01.539Z,65.40
2022-09-25T23:06:29.292Z,65.30
2022-09-25T23:09:00.160Z,65.60
2022-09-25T23:11:27.253Z,65.70
2022-09-25T23:13:58.600Z,65.70
2022-09-25T23:16:25.417Z,63.20
2022-09-25T23:18:52.279Z,65.50
2022-09-25T23:21:19.079Z,65.40
2022-09-25T23:23:45.683Z,65.50
2022-09-25T23:26:12.296Z,65.50
2022-09-25T23:28:40.084Z,65.60
2022-09-25T23:31:08.003Z,65.70
2022-09-25T23:33:34.733Z,65.50
2022-09-25T23:36:02.017Z,65.70
2022-09-25T23:38:30.013Z,66.00
2022-09-25T23:40:56.651Z,65.80
2022-09-25T23:43:23.430Z,66.20
2022-09-25T23:45:50.523Z,65.90
2022-09-25T23:48:17.243Z,66.40
2022-09-25T23:50:44.123Z,67.00
2022-09-25T23:53:10.818Z,66.90
2022-09-25T23:55:42.461Z,67.60
2022-09-25T23:58:09.472Z,63.90
